sensor_id;sensor_type;location;lat;lon;timestamp;pressure;altitude;pressure_sealevel;temperature
45565;BMP280;31280;40.408;17.282;2022-10-16T00:02:24;101803.03;;;18.13
45565;BMP280;31280;40.408;17.282;2022-10-16T00:04:50;101794.31;;;18.06
45565;BMP280;31280;40.408;17.282;2022-10-16T00:07:16;101815.81;;;18.16
45565;BMP280;31280;40.408;17.282;2022-10-16T00:09:42;101806.88;;;18.15
45565;BMP280;31280;40.408;17.282;2022-10-16T00:12:08;101808.84;;;18.15
45565;BMP280;31280;40.408;17.282;2022-10-16T00:14:33;101802.41;;;18.09
45565;BMP280;31280;40.408;17.282;2022-10-16T00:16:59;101809.25;;;18.13
45565;BMP280;31280;40.408;17.282;2022-10-16T00:19:25;101813.19;;;18.13
45565;BMP280;31280;40.408;17.282;2022-10-16T00:21:50;101813.00;;;18.07
45565;BMP280;31280;40.408;17.282;2022-10-16T00:24:16;101818.19;;;18.14
45565;BMP280;31280;40.408;17.282;2022-10-16T00:26:42;101816.91;;;18.06
45565;BMP280;31280;40.408;17.282;2022-10-16T00:29:08;101823.91;;;18.07
45565;BMP280;31280;40.408;17.282;2022-10-16T00:31:34;101830.13;;;18.08
45565;BMP280;31280;40.408;17.282;2022-10-16T00:34:00;101808.59;;;17.97
45565;BMP280;31280;40.408;17.282;2022-10-16T00:36:26;101825.44;;;18.08
45565;BMP280;31280;40.408;17.282;2022-10-16T00:38:54;101826.63;;;18.07
45565;BMP280;31280;40.408;17.282;2022-10-16T00:41:22;101840.69;;;18.06
45565;BMP280;31280;40.408;17.282;2022-10-16T00:43:52;101838.38;;;18.04
45565;BMP280;31280;40.408;17.282;2022-10-16T00:46:43;101824.53;;;17.99
45565;BMP280;31280;40.408;17.282;2022-10-16T00:49:13;101828.34;;;18.01
45565;BMP280;31280;40.408;17.282;2022-10-16T00:51:43;101825.28;;;17.99
45565;BMP280;31280;40.408;17.282;2022-10-16T00:54:26;101828.78;;;18.00
45565;BMP280;31280;40.408;17.282;2022-10-16T00:56:53;101822.25;;;17.97
45565;BMP280;31280;40.408;17.282;2022-10-16T00:59:24;101826.19;;;17.96
45565;BMP280;31280;40.408;17.282;2022-10-16T01:01:51;101825.88;;;17.94
45565;BMP280;31280;40.408;17.282;2022-10-16T01:04:18;101820.06;;;17.92
45565;BMP280;31280;40.408;17.282;2022-10-16T01:07:18;101819.66;;;17.94
45565;BMP280;31280;40.408;17.282;2022-10-16T01:10:14;101813.41;;;17.93
45565;BMP280;31280;40.408;17.282;2022-10-16T01:12:51;101812.66;;;17.93
45565;BMP280;31280;40.408;17.282;2022-10-16T01:19:04;101820.81;;;17.93
45565;BMP280;31280;40.408;17.282;2022-10-16T01:21:30;101820.81;;;17.93
45565;BMP280;31280;40.408;17.282;2022-10-16T01:24:39;101820.06;;;17.92
45565;BMP280;31280;40.408;17.282;2022-10-16T01:30:05;101810.78;;;17.90
45565;BMP280;31280;40.408;17.282;2022-10-16T01:32:57;101820.94;;;17.89
45565;BMP280;31280;40.408;17.282;2022-10-16T01:35:53;101798.69;;;17.79
45565;BMP280;31280;40.408;17.282;2022-10-16T01:41:01;101822.91;;;17.89
45565;BMP280;31280;40.408;17.282;2022-10-16T01:43:40;101817.88;;;17.87
45565;BMP280;31280;40.408;17.282;2022-10-16T01:46:06;101815.16;;;17.87
45565;BMP280;31280;40.408;17.282;2022-10-16T01:48:34;101817.88;;;17.87
45565;BMP280;31280;40.408;17.282;2022-10-16T01:51:07;101817.88;;;17.87
45565;BMP280;31280;40.408;17.282;2022-10-16T01:53:34;101814.84;;;17.85
45565;BMP280;31280;40.408;17.282;2022-10-16T01:56:02;101817.88;;;17.87
45565;BMP280;31280;40.408;17.282;2022-10-16T01:58:30;101814.84;;;17.85
45565;BMP280;31280;40.408;17.282;2022-10-16T02:01:01;101816.81;;;17.85
45565;BMP280;31280;40.408;17.282;2022-10-16T02:03:28;101820.72;;;17.84
45565;BMP280;31280;40.408;17.282;2022-10-16T02:05:56;101811.00;;;17.83
45565;BMP280;31280;40.408;17.282;2022-10-16T02:08:24;101811.75;;;17.84
45565;BMP280;31280;40.408;17.282;2022-10-16T02:10:51;101816.88;;;17.82
45565;BMP280;31280;40.408;17.282;2022-10-16T02:13:22;101801.75;;;17.81
45565;BMP280;31280;40.408;17.282;2022-10-16T02:15:49;101811.88;;;17.80
45565;BMP280;31280;40.408;17.282;2022-10-16T02:18:15;101813.50;;;17.78
45565;BMP280;31280;40.408;17.282;2022-10-16T02:23:16;101817.41;;;17.77
45565;BMP280;31280;40.408;17.282;2022-10-16T02:25:44;101811.94;;;17.77
45565;BMP280;31280;40.408;17.282;2022-10-16T02:28:26;101820.59;;;17.75
45565;BMP280;31280;40.408;17.282;2022-10-16T02:30:58;101825.28;;;17.75
45565;BMP280;31280;40.408;17.282;2022-10-16T02:33:26;101816.75;;;17.73
45565;BMP280;31280;40.408;17.282;2022-10-16T02:35:53;101805.34;;;17.65
45565;BMP280;31280;40.408;17.282;2022-10-16T02:38:21;101820.59;;;17.75
45565;BMP280;31280;40.408;17.282;2022-10-16T02:40:47;101812.84;;;17.74
45565;BMP280;31280;40.408;17.282;2022-10-16T02:43:14;101817.09;;;17.75
45565;BMP280;31280;40.408;17.282;2022-10-16T02:45:40;101817.09;;;17.75
45565;BMP280;31280;40.408;17.282;2022-10-16T02:48:06;101817.53;;;17.73
45565;BMP280;31280;40.408;17.282;2022-10-16T02:50:33;101803.69;;;17.68
45565;BMP280;31280;40.408;17.282;2022-10-16T02:52:59;101797.78;;;17.57
45565;BMP280;31280;40.408;17.282;2022-10-16T02:55:24;101816.09;;;17.69
45565;BMP280;31280;40.408;17.282;2022-10-16T02:57:50;101823.50;;;17.68
45565;BMP280;31280;40.408;17.282;2022-10-16T03:00:17;101812.38;;;17.63
45565;BMP280;31280;40.408;17.282;2022-10-16T03:02:43;101817.75;;;17.66
45565;BMP280;31280;40.408;17.282;2022-10-16T03:05:09;101820.91;;;17.65
45565;BMP280;31280;40.408;17.282;2022-10-16T03:07:35;101820.91;;;17.65
45565;BMP280;31280;40.408;17.282;2022-10-16T03:10:01;101825.69;;;17.61
45565;BMP280;31280;40.408;17.282;2022-10-16T03:12:27;101829.06;;;17.53
45565;BMP280;31280;40.408;17.282;2022-10-16T03:14:53;101829.34;;;17.42
45565;BMP280;31280;40.408;17.282;2022-10-16T03:17:19;101828.69;;;17.38
45565;BMP280;31280;40.408;17.282;2022-10-16T03:19:45;101833.19;;;17.45
45565;BMP280;31280;40.408;17.282;2022-10-16T03:22:11;101836.25;;;17.47
45565;BMP280;31280;40.408;17.282;2022-10-16T03:24:37;101835.34;;;17.50
45565;BMP280;31280;40.408;17.282;2022-10-16T03:27:02;101839.63;;;17.51
45565;BMP280;31280;40.408;17.282;2022-10-16T03:29:28;101845.84;;;17.51
45565;BMP280;31280;40.408;17.282;2022-10-16T03:31:56;101843.88;;;17.52
45565;BMP280;31280;40.408;17.282;2022-10-16T03:34:22;101855.56;;;17.52
45565;BMP280;31280;40.408;17.282;2022-10-16T03:36:48;101847.69;;;17.54
45565;BMP280;31280;40.408;17.282;2022-10-16T03:39:14;101858.59;;;17.54
45565;BMP280;31280;40.408;17.282;2022-10-16T03:41:40;101844.94;;;17.42
45565;BMP280;31280;40.408;17.282;2022-10-16T03:44:05;101856.38;;;17.49
45565;BMP280;31280;40.408;17.282;2022-10-16T03:46:31;101856.91;;;17.44
45565;BMP280;31280;40.408;17.282;2022-10-16T03:48:57;101862.03;;;17.42
45565;BMP280;31280;40.408;17.282;2022-10-16T03:51:23;101860.72;;;17.34
45565;BMP280;31280;40.408;17.282;2022-10-16T03:53:49;101865.81;;;17.32
45565;BMP280;31280;40.408;17.282;2022-10-16T03:56:15;101871.69;;;17.31
45565;BMP280;31280;40.408;17.282;2022-10-16T03:58:40;101866.59;;;17.33
45565;BMP280;31280;40.408;17.282;2022-10-16T04:01:06;101872.03;;;17.33
45565;BMP280;31280;40.408;17.282;2022-10-16T04:03:32;101874.34;;;17.34
45565;BMP280;31280;40.408;17.282;2022-10-16T04:05:58;101879.78;;;17.34
45565;BMP280;31280;40.408;17.282;2022-10-16T04:08:24;101851.63;;;17.25
45565;BMP280;31280;40.408;17.282;2022-10-16T04:10:50;101873.13;;;17.35
45565;BMP280;31280;40.408;17.282;2022-10-16T04:13:16;101877.38;;;17.36
45565;BMP280;31280;40.408;17.282;2022-10-16T04:15:44;101877.72;;;17.38
45565;BMP280;31280;40.408;17.282;2022-10-16T04:18:10;101880.91;;;17.37
45565;BMP280;31280;40.408;17.282;2022-10-16T04:20:36;101878.16;;;17.37
45565;BMP280;31280;40.408;17.282;2022-10-16T04:23:02;101883.19;;;17.38
45565;BMP280;31280;40.408;17.282;2022-10-16T04:25:28;101874.88;;;17.29
45565;BMP280;31280;40.408;17.282;2022-10-16T04:27:55;101887.53;;;17.36
45565;BMP280;31280;40.408;17.282;2022-10-16T04:30:22;101889.06;;;17.37
45565;BMP280;31280;40.408;17.282;2022-10-16T04:32:49;101883.63;;;17.37
45565;BMP280;31280;40.408;17.282;2022-10-16T04:35:16;101884.78;;;17.36
45565;BMP280;31280;40.408;17.282;2022-10-16T04:37:42;101885.56;;;17.36
45565;BMP280;31280;40.408;17.282;2022-10-16T04:40:08;101884.03;;;17.35
45565;BMP280;31280;40.408;17.282;2022-10-16T04:42:34;101882.06;;;17.36
45565;BMP280;31280;40.408;17.282;2022-10-16T04:45:00;101885.16;;;17.38
45565;BMP280;31280;40.408;17.282;2022-10-16T04:47:25;101884.78;;;17.36
45565;BMP280;31280;40.408;17.282;2022-10-16T04:49:51;101888.28;;;17.36
45565;BMP280;31280;40.408;17.282;2022-10-16T04:52:17;101886.00;;;17.35
45565;BMP280;31280;40.408;17.282;2022-10-16T04:54:44;101893.41;;;17.34
45565;BMP280;31280;40.408;17.282;2022-10-16T04:57:11;101893.41;;;17.34
45565;BMP280;31280;40.408;17.282;2022-10-16T04:59:37;101898.50;;;17.32
45565;BMP280;31280;40.408;17.282;2022-10-16T05:02:03;101895.13;;;17.28
45565;BMP280;31280;40.408;17.282;2022-10-16T05:04:28;101865.88;;;17.17
45565;BMP280;31280;40.408;17.282;2022-10-16T05:06:54;101899.72;;;17.31
45565;BMP280;31280;40.408;17.282;2022-10-16T05:09:20;101890.53;;;17.26
45565;BMP280;31280;40.408;17.282;2022-10-16T05:11:46;101885.84;;;17.26
45565;BMP280;31280;40.408;17.282;2022-10-16T05:14:12;101901.25;;;17.32
45565;BMP280;31280;40.408;17.282;2022-10-16T05:16:37;101889.00;;;17.25
45565;BMP280;31280;40.408;17.282;2022-10-16T05:19:04;101897.75;;;17.32
45565;BMP280;31280;40.408;17.282;2022-10-16T05:21:29;101894.28;;;17.31
45565;BMP280;31280;40.408;17.282;2022-10-16T05:23:55;101903.63;;;17.30
45565;BMP280;31280;40.408;17.282;2022-10-16T05:26:21;101885.19;;;17.22
45565;BMP280;31280;40.408;17.282;2022-10-16T05:28:47;101897.00;;;17.31
45565;BMP280;31280;40.408;17.282;2022-10-16T05:31:14;101899.06;;;17.28
45565;BMP280;31280;40.408;17.282;2022-10-16T05:33:40;101916.06;;;17.31
45565;BMP280;31280;40.408;17.282;2022-10-16T05:36:08;101897.59;;;17.23
45565;BMP280;31280;40.408;17.282;2022-10-16T05:38:37;101914.50;;;17.30
45565;BMP280;31280;40.408;17.282;2022-10-16T05:41:04;101917.94;;;17.34
45565;BMP280;31280;40.408;17.282;2022-10-16T05:43:31;101913.69;;;17.33
45565;BMP280;31280;40.408;17.282;2022-10-16T05:46:03;101905.34;;;17.25
45565;BMP280;31280;40.408;17.282;2022-10-16T05:48:29;101930.03;;;17.33
45565;BMP280;31280;40.408;17.282;2022-10-16T05:51:02;101923.38;;;17.34
45565;BMP280;31280;40.408;17.282;2022-10-16T05:53:28;101917.59;;;17.32
45565;BMP280;31280;40.408;17.282;2022-10-16T05:55:55;101907.06;;;17.19
45565;BMP280;31280;40.408;17.282;2022-10-16T05:58:21;101933.06;;;17.35
45565;BMP280;31280;40.408;17.282;2022-10-16T06:01:00;101933.00;;;17.39
45565;BMP280;31280;40.408;17.282;2022-10-16T06:03:26;101933.06;;;17.35
45565;BMP280;31280;40.408;17.282;2022-10-16T06:05:52;101945.34;;;17.43
45565;BMP280;31280;40.408;17.282;2022-10-16T06:08:20;101951.88;;;17.46
45565;BMP280;31280;40.408;17.282;2022-10-16T06:10:48;101942.25;;;17.41
45565;BMP280;31280;40.408;17.282;2022-10-16T06:13:15;101956.38;;;17.52
45565;BMP280;31280;40.408;17.282;2022-10-16T06:15:42;101960.94;;;17.55
45565;BMP280;31280;40.408;17.282;2022-10-16T06:18:11;101943.59;;;17.49
45565;BMP280;31280;40.408;17.282;2022-10-16T06:20:37;101951.69;;;17.53
45565;BMP280;31280;40.408;17.282;2022-10-16T06:23:03;101962.63;;;17.65
45565;BMP280;31280;40.408;17.282;2022-10-16T06:25:30;101967.91;;;17.72
45565;BMP280;31280;40.408;17.282;2022-10-16T06:27:57;101974.69;;;17.80
45565;BMP280;31280;40.408;17.282;2022-10-16T06:30:22;101967.53;;;17.85
45565;BMP280;31280;40.408;17.282;2022-10-16T06:32:48;101977.03;;;17.93
45565;BMP280;31280;40.408;17.282;2022-10-16T06:35:14;101975.63;;;18.01
45565;BMP280;31280;40.408;17.282;2022-10-16T06:37:40;101978.59;;;18.07
45565;BMP280;31280;40.408;17.282;2022-10-16T06:40:06;101987.78;;;18.13
45565;BMP280;31280;40.408;17.282;2022-10-16T06:42:32;101997.72;;;18.19
45565;BMP280;31280;40.408;17.282;2022-10-16T06:44:58;101994.56;;;18.20
45565;BMP280;31280;40.408;17.282;2022-10-16T06:47:24;101990.19;;;18.23
45565;BMP280;31280;40.408;17.282;2022-10-16T06:49:50;102005.84;;;18.35
45565;BMP280;31280;40.408;17.282;2022-10-16T06:52:15;102004.97;;;18.38
45565;BMP280;31280;40.408;17.282;2022-10-16T06:54:41;102007.78;;;18.46
45565;BMP280;31280;40.408;17.282;2022-10-16T06:57:07;102006.06;;;18.52
45565;BMP280;31280;40.408;17.282;2022-10-16T06:59:33;102010.31;;;18.53
45565;BMP280;31280;40.408;17.282;2022-10-16T07:01:59;101997.31;;;18.57
45565;BMP280;31280;40.408;17.282;2022-10-16T07:04:24;101957.44;;;18.35
45565;BMP280;31280;40.408;17.282;2022-10-16T07:06:50;102012.72;;;18.76
45565;BMP280;31280;40.408;17.282;2022-10-16T07:09:17;102011.63;;;18.86
45565;BMP280;31280;40.408;17.282;2022-10-16T07:11:42;101998.97;;;18.79
45565;BMP280;31280;40.408;17.282;2022-10-16T07:14:19;102024.19;;;18.96
45565;BMP280;31280;40.408;17.282;2022-10-16T07:16:45;102030.94;;;19.03
45565;BMP280;31280;40.408;17.282;2022-10-16T07:19:11;102017.59;;;19.05
45565;BMP280;31280;40.408;17.282;2022-10-16T07:21:40;102029.50;;;19.23
45565;BMP280;31280;40.408;17.282;2022-10-16T07:24:12;102036.88;;;19.35
45565;BMP280;31280;40.408;17.282;2022-10-16T07:26:40;102028.66;;;19.48
45565;BMP280;31280;40.408;17.282;2022-10-16T07:29:12;102018.06;;;19.50
45565;BMP280;31280;40.408;17.282;2022-10-16T07:31:39;102027.28;;;19.64
45565;BMP280;31280;40.408;17.282;2022-10-16T07:34:05;102008.53;;;19.54
45565;BMP280;31280;40.408;17.282;2022-10-16T07:36:31;102034.53;;;19.79
45565;BMP280;31280;40.408;17.282;2022-10-16T07:38:57;102041.28;;;19.87
45565;BMP280;31280;40.408;17.282;2022-10-16T07:41:23;102022.28;;;19.84
45565;BMP280;31280;40.408;17.282;2022-10-16T07:43:51;102043.88;;;20.03
45565;BMP280;31280;40.408;17.282;2022-10-16T07:46:18;102042.81;;;20.09
45565;BMP280;31280;40.408;17.282;2022-10-16T07:48:44;102034.06;;;20.14
45565;BMP280;31280;40.408;17.282;2022-10-16T07:51:14;102047.19;;;20.28
45565;BMP280;31280;40.408;17.282;2022-10-16T07:53:40;102031.97;;;20.27
45565;BMP280;31280;40.408;17.282;2022-10-16T07:56:06;102044.69;;;20.42
45565;BMP280;31280;40.408;17.282;2022-10-16T07:58:34;102044.53;;;20.46
45565;BMP280;31280;40.408;17.282;2022-10-16T08:01:07;102044.28;;;20.53
45565;BMP280;31280;40.408;17.282;2022-10-16T08:03:33;102037.44;;;20.57
45565;BMP280;31280;40.408;17.282;2022-10-16T08:06:00;102051.94;;;20.66
45565;BMP280;31280;40.408;17.282;2022-10-16T08:08:26;102046.91;;;20.65
45565;BMP280;31280;40.408;17.282;2022-10-16T08:10:52;102056.88;;;20.71
45565;BMP280;31280;40.408;17.282;2022-10-16T08:13:18;102054.13;;;20.80
45565;BMP280;31280;40.408;17.282;2022-10-16T08:15:44;102039.16;;;20.72
45565;BMP280;31280;40.408;17.282;2022-10-16T08:18:12;102046.22;;;20.82
45565;BMP280;31280;40.408;17.282;2022-10-16T08:20:58;102048.63;;;20.80
45565;BMP280;31280;40.408;17.282;2022-10-16T08:23:25;102054.16;;;20.89
45565;BMP280;31280;40.408;17.282;2022-10-16T08:25:52;102053.59;;;20.94
45565;BMP280;31280;40.408;17.282;2022-10-16T08:28:19;102049.34;;;21.02
45565;BMP280;31280;40.408;17.282;2022-10-16T08:30:45;102037.44;;;21.05
45565;BMP280;31280;40.408;17.282;2022-10-16T08:33:11;102056.38;;;21.20
45565;BMP280;31280;40.408;17.282;2022-10-16T08:35:36;102053.31;;;21.27
45565;BMP280;31280;40.408;17.282;2022-10-16T08:38:06;102047.25;;;21.32
45565;BMP280;31280;40.408;17.282;2022-10-16T08:40:33;102053.06;;;21.43
45565;BMP280;31280;40.408;17.282;2022-10-16T08:43:26;102051.22;;;21.49
45565;BMP280;31280;40.408;17.282;2022-10-16T08:48:50;102047.84;;;21.54
45565;BMP280;31280;40.408;17.282;2022-10-16T08:51:29;102060.03;;;21.62
45565;BMP280;31280;40.408;17.282;2022-10-16T08:53:57;102059.75;;;21.60
45565;BMP280;31280;40.408;17.282;2022-10-16T08:56:25;102059.13;;;21.65
45565;BMP280;31280;40.408;17.282;2022-10-16T08:58:52;102069.19;;;21.76
45565;BMP280;31280;40.408;17.282;2022-10-16T09:01:20;102063.56;;;21.80
45565;BMP280;31280;40.408;17.282;2022-10-16T09:04:04;102069.66;;;21.84
45565;BMP280;31280;40.408;17.282;2022-10-16T09:12:10;102072.56;;;21.89
45565;BMP280;31280;40.408;17.282;2022-10-16T09:22:42;102075.81;;;22.28
45565;BMP280;31280;40.408;17.282;2022-10-16T09:25:16;102072.28;;;22.37
45565;BMP280;31280;40.408;17.282;2022-10-16T09:27:46;102078.22;;;22.44
45565;BMP280;31280;40.408;17.282;2022-10-16T09:30:13;102080.91;;;22.53
45565;BMP280;31280;40.408;17.282;2022-10-16T09:32:40;102070.97;;;22.55
45565;BMP280;31280;40.408;17.282;2022-10-16T09:35:13;102081.16;;;22.64
45565;BMP280;31280;40.408;17.282;2022-10-16T09:37:42;102083.59;;;22.71
45565;BMP280;31280;40.408;17.282;2022-10-16T09:40:12;102068.13;;;22.73
45565;BMP280;31280;40.408;17.282;2022-10-16T09:42:39;102081.81;;;22.91
45565;BMP280;31280;40.408;17.282;2022-10-16T09:45:05;102081.91;;;22.96
45565;BMP280;31280;40.408;17.282;2022-10-16T09:47:37;102083.75;;;22.99
45565;BMP280;31280;40.408;17.282;2022-10-16T09:52:46;102079.09;;;23.05
45565;BMP280;31280;40.408;17.282;2022-10-16T09:55:17;102073.16;;;23.06
45565;BMP280;31280;40.408;17.282;2022-10-16T09:57:50;102075.13;;;23.06
45565;BMP280;31280;40.408;17.282;2022-10-16T10:00:17;102075.75;;;23.10
45565;BMP280;31280;40.408;17.282;2022-10-16T10:02:44;102052.53;;;23.02
45565;BMP280;31280;40.408;17.282;2022-10-16T10:05:27;102069.41;;;23.18
45565;BMP280;31280;40.408;17.282;2022-10-16T10:07:57;102067.97;;;23.23
45565;BMP280;31280;40.408;17.282;2022-10-16T10:10:29;102072.41;;;23.29
45565;BMP280;31280;40.408;17.282;2022-10-16T10:12:55;102071.63;;;23.28
45565;BMP280;31280;40.408;17.282;2022-10-16T10:15:22;102064.59;;;23.27
45565;BMP280;31280;40.408;17.282;2022-10-16T10:17:54;102069.66;;;23.29
45565;BMP280;31280;40.408;17.282;2022-10-16T10:20:30;102058.72;;;23.34
45565;BMP280;31280;40.408;17.282;2022-10-16T10:23:00;102062.34;;;23.40
45565;BMP280;31280;40.408;17.282;2022-10-16T10:25:49;102061.69;;;23.45
45565;BMP280;31280;40.408;17.282;2022-10-16T10:33:47;102057.44;;;23.58
45565;BMP280;31280;40.408;17.282;2022-10-16T10:39:22;102034.69;;;23.58
45565;BMP280;31280;40.408;17.282;2022-10-16T10:42:08;102041.16;;;23.69
45565;BMP280;31280;40.408;17.282;2022-10-16T10:55:24;102024.81;;;23.94
45565;BMP280;31280;40.408;17.282;2022-10-16T11:00:57;102024.59;;;24.12
45565;BMP280;31280;40.408;17.282;2022-10-16T11:06:20;102007.78;;;24.10
45565;BMP280;31280;40.408;17.282;2022-10-16T11:09:17;102026.41;;;24.15
45565;BMP280;31280;40.408;17.282;2022-10-16T11:11:53;102018.88;;;24.29
45565;BMP280;31280;40.408;17.282;2022-10-16T11:14:28;102009.38;;;24.30
45565;BMP280;31280;40.408;17.282;2022-10-16T11:17:16;102011.31;;;24.44
45565;BMP280;31280;40.408;17.282;2022-10-16T11:22:38;102006.59;;;24.64
45565;BMP280;31280;40.408;17.282;2022-10-16T11:25:22;102004.88;;;24.67
45565;BMP280;31280;40.408;17.282;2022-10-16T11:33:26;101998.84;;;24.88
45565;BMP280;31280;40.408;17.282;2022-10-16T11:36:19;102000.53;;;25.00
45565;BMP280;31280;40.408;17.282;2022-10-16T11:44:38;101994.03;;;25.28
45565;BMP280;31280;40.408;17.282;2022-10-16T11:50:09;101991.03;;;25.26
45565;BMP280;31280;40.408;17.282;2022-10-16T11:52:44;101977.13;;;25.15
45565;BMP280;31280;40.408;17.282;2022-10-16T11:57:48;101991.66;;;25.40
45565;BMP280;31280;40.408;17.282;2022-10-16T12:05:30;101992.75;;;25.48
45565;BMP280;31280;40.408;17.282;2022-10-16T12:08:08;101986.69;;;25.44
45565;BMP280;31280;40.408;17.282;2022-10-16T12:10:34;101977.78;;;25.60
45565;BMP280;31280;40.408;17.282;2022-10-16T12:13:05;101979.94;;;25.76
45565;BMP280;31280;40.408;17.282;2022-10-16T12:15:33;101981.22;;;25.80
45565;BMP280;31280;40.408;17.282;2022-10-16T12:17:58;101960.03;;;25.66
45565;BMP280;31280;40.408;17.282;2022-10-16T12:20:31;101972.31;;;25.65
45565;BMP280;31280;40.408;17.282;2022-10-16T12:23:02;101966.03;;;25.95
45565;BMP280;31280;40.408;17.282;2022-10-16T12:25:37;101973.97;;;26.24
45565;BMP280;31280;40.408;17.282;2022-10-16T12:28:21;101966.28;;;26.38
45565;BMP280;31280;40.408;17.282;2022-10-16T12:30:58;101962.00;;;26.43
45565;BMP280;31280;40.408;17.282;2022-10-16T12:33:30;101966.06;;;26.47
45565;BMP280;31280;40.408;17.282;2022-10-16T12:36:00;101962.53;;;26.52
45565;BMP280;31280;40.408;17.282;2022-10-16T12:38:27;101965.16;;;26.72
45565;BMP280;31280;40.408;17.282;2022-10-16T12:41:00;101970.94;;;26.79
45565;BMP280;31280;40.408;17.282;2022-10-16T12:46:05;101972.06;;;27.14
45565;BMP280;31280;40.408;17.282;2022-10-16T12:48:45;101982.59;;;27.21
45565;BMP280;31280;40.408;17.282;2022-10-16T12:51:35;101972.28;;;27.21
45565;BMP280;31280;40.408;17.282;2022-10-16T12:54:20;101980.38;;;27.52
45565;BMP280;31280;40.408;17.282;2022-10-16T13:11:20;101984.31;;;28.66
45565;BMP280;31280;40.408;17.282;2022-10-16T13:16:30;101979.47;;;28.77
45565;BMP280;31280;40.408;17.282;2022-10-16T13:24:28;101981.69;;;29.24
45565;BMP280;31280;40.408;17.282;2022-10-16T13:30:02;101996.59;;;29.21
45565;BMP280;31280;40.408;17.282;2022-10-16T13:32:34;101972.28;;;29.26
45565;BMP280;31280;40.408;17.282;2022-10-16T13:34:59;101983.78;;;28.73
45565;BMP280;31280;40.408;17.282;2022-10-16T13:37:26;101996.38;;;28.74
45565;BMP280;31280;40.408;17.282;2022-10-16T13:40:09;101979.94;;;28.81
45565;BMP280;31280;40.408;17.282;2022-10-16T13:42:38;101994.53;;;28.87
45565;BMP280;31280;40.408;17.282;2022-10-16T13:45:04;101994.81;;;28.83
45565;BMP280;31280;40.408;17.282;2022-10-16T13:47:30;101990.59;;;28.72
45565;BMP280;31280;40.408;17.282;2022-10-16T13:50:11;101987.63;;;28.59
45565;BMP280;31280;40.408;17.282;2022-10-16T13:52:37;101990.97;;;28.52
45565;BMP280;31280;40.408;17.282;2022-10-16T13:55:10;101986.78;;;28.24
45565;BMP280;31280;40.408;17.282;2022-10-16T13:57:35;101978.06;;;27.99
45565;BMP280;31280;40.408;17.282;2022-10-16T14:00:01;102003.66;;;28.26
45565;BMP280;31280;40.408;17.282;2022-10-16T14:02:32;101996.78;;;28.43
45565;BMP280;31280;40.408;17.282;2022-10-16T14:05:01;101985.91;;;28.45
45565;BMP280;31280;40.408;17.282;2022-10-16T14:07:30;101994.16;;;28.67
45565;BMP280;31280;40.408;17.282;2022-10-16T14:10:01;101996.69;;;28.65
45565;BMP280;31280;40.408;17.282;2022-10-16T14:12:28;101995.69;;;28.57
45565;BMP280;31280;40.408;17.282;2022-10-16T14:14:54;101996.03;;;28.43
45565;BMP280;31280;40.408;17.282;2022-10-16T14:17:26;102001.72;;;28.05
45565;BMP280;31280;40.408;17.282;2022-10-16T14:19:59;102004.16;;;28.25
45565;BMP280;31280;40.408;17.282;2022-10-16T14:22:38;101984.28;;;28.15
45565;BMP280;31280;40.408;17.282;2022-10-16T14:30:27;101997.97;;;27.65
45565;BMP280;31280;40.408;17.282;2022-10-16T14:33:02;101988.66;;;27.19
45565;BMP280;31280;40.408;17.282;2022-10-16T14:35:39;101991.91;;;27.07
45565;BMP280;31280;40.408;17.282;2022-10-16T14:38:14;101990.31;;;26.84
45565;BMP280;31280;40.408;17.282;2022-10-16T14:40:47;101981.91;;;26.52
45565;BMP280;31280;40.408;17.282;2022-10-16T14:43:40;101985.97;;;26.10
45565;BMP280;31280;40.408;17.282;2022-10-16T14:46:17;101939.41;;;25.62
45565;BMP280;31280;40.408;17.282;2022-10-16T14:48:46;101994.16;;;25.99
45565;BMP280;31280;40.408;17.282;2022-10-16T14:51:19;101993.47;;;25.74
45565;BMP280;31280;40.408;17.282;2022-10-16T14:53:46;101999.16;;;25.65
45565;BMP280;31280;40.408;17.282;2022-10-16T14:56:21;101998.78;;;25.52
45565;BMP280;31280;40.408;17.282;2022-10-16T14:58:49;101994.28;;;25.24
45565;BMP280;31280;40.408;17.282;2022-10-16T15:01:16;101997.84;;;25.05
45565;BMP280;31280;40.408;17.282;2022-10-16T15:03:41;101984.03;;;24.85
45565;BMP280;31280;40.408;17.282;2022-10-16T15:06:17;101988.25;;;24.81
45565;BMP280;31280;40.408;17.282;2022-10-16T15:08:43;102003.50;;;24.77
45565;BMP280;31280;40.408;17.282;2022-10-16T15:11:12;102000.88;;;24.68
45565;BMP280;31280;40.408;17.282;2022-10-16T15:13:39;102005.28;;;24.60
45565;BMP280;31280;40.408;17.282;2022-10-16T15:16:10;102009.88;;;24.49
45565;BMP280;31280;40.408;17.282;2022-10-16T15:18:36;102009.94;;;24.34
45565;BMP280;31280;40.408;17.282;2022-10-16T15:21:02;102013.94;;;24.19
45565;BMP280;31280;40.408;17.282;2022-10-16T15:23:28;102019.06;;;24.12
45565;BMP280;31280;40.408;17.282;2022-10-16T15:25:55;102017.03;;;24.07
45565;BMP280;31280;40.408;17.282;2022-10-16T15:28:22;102019.66;;;24.02
45565;BMP280;31280;40.408;17.282;2022-10-16T15:30:53;102017.28;;;23.95
45565;BMP280;31280;40.408;17.282;2022-10-16T15:33:21;102018.19;;;23.86
45565;BMP280;31280;40.408;17.282;2022-10-16T15:35:52;102025.97;;;23.74
45565;BMP280;31280;40.408;17.282;2022-10-16T15:38:19;102016.28;;;23.64
45565;BMP280;31280;40.408;17.282;2022-10-16T15:40:47;102026.91;;;23.56
45565;BMP280;31280;40.408;17.282;2022-10-16T15:43:12;102030.31;;;23.51
45565;BMP280;31280;40.408;17.282;2022-10-16T15:45:38;102034.47;;;23.47
45565;BMP280;31280;40.408;17.282;2022-10-16T15:48:04;102037.91;;;23.42
45565;BMP280;31280;40.408;17.282;2022-10-16T15:50:31;102034.44;;;23.33
45565;BMP280;31280;40.408;17.282;2022-10-16T15:52:57;102039.25;;;23.24